sensor_id;sensor_type;location;lat;lon;timestamp;P1;durP1;ratioP1;P2;durP2;ratioP2
74074;SDS011;62428;51.412;5.432;2023-02-26T00:00:10;4.07;;;1.20;;
74074;SDS011;62428;51.412;5.432;2023-02-26T00:02:39;9.68;;;1.45;;
74074;SDS011;62428;51.412;5.432;2023-02-26T00:05:06;12.63;;;1.65;;
74074;SDS011;62428;51.412;5.432;2023-02-26T00:07:31;11.63;;;1.70;;
74074;SDS011;62428;51.412;5.432;2023-02-26T00:09:57;6.20;;;1.50;;
74074;SDS011;62428;51.412;5.432;2023-02-26T00:12:22;9.83;;;1.57;;
74074;SDS011;62428;51.412;5.432;2023-02-26T00:14:48;7.50;;;1.60;;
74074;SDS011;62428;51.412;5.432;2023-02-26T00:19:58;9.60;;;1.70;;
74074;SDS011;62428;51.412;5.432;2023-02-26T00:22:24;5.05;;;1.50;;
74074;SDS011;62428;51.412;5.432;2023-02-26T00:24:49;5.80;;;1.63;;
74074;SDS011;62428;51.412;5.432;2023-02-26T00:27:14;8.97;;;1.77;;
74074;SDS011;62428;51.412;5.432;2023-02-26T00:29:40;6.70;;;1.63;;
74074;SDS011;62428;51.412;5.432;2023-02-26T00:32:06;6.15;;;1.42;;
74074;SDS011;62428;51.412;5.432;2023-02-26T00:34:32;8.87;;;1.90;;
74074;SDS011;62428;51.412;5.432;2023-02-26T00:42:09;8.93;;;1.80;;
74074;SDS011;62428;51.412;5.432;2023-02-26T00:44:35;19.10;;;1.80;;
74074;SDS011;62428;51.412;5.432;2023-02-26T00:47:03;8.23;;;1.35;;
74074;SDS011;62428;51.412;5.432;2023-02-26T00:49:41;7.05;;;1.42;;
74074;SDS011;62428;51.412;5.432;2023-02-26T00:52:35;9.13;;;1.43;;
74074;SDS011;62428;51.412;5.432;2023-02-26T00:55:07;9.43;;;1.35;;
74074;SDS011;62428;51.412;5.432;2023-02-26T00:57:33;4.27;;;1.30;;
74074;SDS011;62428;51.412;5.432;2023-02-26T00:59:58;5.95;;;1.55;;
74074;SDS011;62428;51.412;5.432;2023-02-26T01:02:23;6.03;;;1.30;;
74074;SDS011;62428;51.412;5.432;2023-02-26T01:04:49;5.60;;;1.10;;
74074;SDS011;62428;51.412;5.432;2023-02-26T01:07:15;5.25;;;1.33;;
74074;SDS011;62428;51.412;5.432;2023-02-26T01:09:47;9.00;;;1.53;;
74074;SDS011;62428;51.412;5.432;2023-02-26T01:12:13;10.10;;;1.63;;
74074;SDS011;62428;51.412;5.432;2023-02-26T01:14:38;4.53;;;1.40;;
74074;SDS011;62428;51.412;5.432;2023-02-26T01:22:13;7.90;;;1.50;;
74074;SDS011;62428;51.412;5.432;2023-02-26T01:24:39;8.73;;;1.40;;
74074;SDS011;62428;51.412;5.432;2023-02-26T01:27:06;7.60;;;1.50;;
74074;SDS011;62428;51.412;5.432;2023-02-26T01:29:31;7.95;;;1.25;;
74074;SDS011;62428;51.412;5.432;2023-02-26T01:35:07;7.10;;;1.10;;
74074;SDS011;62428;51.412;5.432;2023-02-26T01:37:56;7.60;;;1.38;;
74074;SDS011;62428;51.412;5.432;2023-02-26T01:43:34;5.20;;;1.20;;
74074;SDS011;62428;51.412;5.432;2023-02-26T01:46:27;5.75;;;1.52;;
74074;SDS011;62428;51.412;5.432;2023-02-26T01:48:59;10.02;;;1.50;;
74074;SDS011;62428;51.412;5.432;2023-02-26T01:54:11;8.55;;;1.35;;
74074;SDS011;62428;51.412;5.432;2023-02-26T01:56:37;11.57;;;1.23;;
74074;SDS011;62428;51.412;5.432;2023-02-26T01:59:04;5.32;;;1.13;;
74074;SDS011;62428;51.412;5.432;2023-02-26T02:01:32;9.50;;;1.50;;
74074;SDS011;62428;51.412;5.432;2023-02-26T02:03:58;8.25;;;1.45;;
74074;SDS011;62428;51.412;5.432;2023-02-26T02:06:24;4.35;;;1.17;;
74074;SDS011;62428;51.412;5.432;2023-02-26T02:08:51;10.43;;;0.88;;
74074;SDS011;62428;51.412;5.432;2023-02-26T02:11:17;6.67;;;1.10;;
74074;SDS011;62428;51.412;5.432;2023-02-26T02:17:00;2.67;;;0.67;;
74074;SDS011;62428;51.412;5.432;2023-02-26T02:28:19;4.47;;;0.90;;
74074;SDS011;62428;51.412;5.432;2023-02-26T02:33:50;6.20;;;1.00;;
74074;SDS011;62428;51.412;5.432;2023-02-26T02:39:20;3.47;;;0.93;;
74074;SDS011;62428;51.412;5.432;2023-02-26T02:42:38;6.25;;;0.93;;
74074;SDS011;62428;51.412;5.432;2023-02-26T02:44:38;8.80;;;1.53;;
74074;SDS011;62428;51.412;5.432;2023-02-26T02:47:07;5.82;;;0.80;;
74074;SDS011;62428;51.412;5.432;2023-02-26T02:50:00;6.95;;;0.88;;
74074;SDS011;62428;51.412;5.432;2023-02-26T02:52:32;4.13;;;0.80;;
74074;SDS011;62428;51.412;5.432;2023-02-26T02:55:07;4.13;;;1.00;;
74074;SDS011;62428;51.412;5.432;2023-02-26T03:00:20;7.55;;;0.70;;
74074;SDS011;62428;51.412;5.432;2023-02-26T03:02:49;9.45;;;1.10;;
74074;SDS011;62428;51.412;5.432;2023-02-26T03:05:26;6.22;;;0.73;;
74074;SDS011;62428;51.412;5.432;2023-02-26T03:07:53;7.27;;;1.07;;
74074;SDS011;62428;51.412;5.432;2023-02-26T03:10:21;7.28;;;0.88;;
74074;SDS011;62428;51.412;5.432;2023-02-26T03:12:46;4.17;;;0.90;;
74074;SDS011;62428;51.412;5.432;2023-02-26T03:15:12;7.40;;;1.13;;
74074;SDS011;62428;51.412;5.432;2023-02-26T03:18:14;6.27;;;0.77;;
74074;SDS011;62428;51.412;5.432;2023-02-26T03:20:43;2.45;;;0.50;;
74074;SDS011;62428;51.412;5.432;2023-02-26T03:25:50;2.40;;;0.50;;
74074;SDS011;62428;51.412;5.432;2023-02-26T03:28:28;3.17;;;0.40;;
74074;SDS011;62428;51.412;5.432;2023-02-26T03:31:07;2.63;;;0.43;;
74074;SDS011;62428;51.412;5.432;2023-02-26T03:33:51;1.83;;;0.43;;
74074;SDS011;62428;51.412;5.432;2023-02-26T03:38:53;5.85;;;0.50;;
74074;SDS011;62428;51.412;5.432;2023-02-26T03:41:33;4.88;;;0.77;;
74074;SDS011;62428;51.412;5.432;2023-02-26T03:44:06;8.98;;;0.45;;
74074;SDS011;62428;51.412;5.432;2023-02-26T03:46:38;6.10;;;0.73;;
74074;SDS011;62428;51.412;5.432;2023-02-26T03:49:11;7.90;;;0.60;;
74074;SDS011;62428;51.412;5.432;2023-02-26T03:51:42;2.45;;;0.40;;
74074;SDS011;62428;51.412;5.432;2023-02-26T03:54:15;4.38;;;0.52;;
74074;SDS011;62428;51.412;5.432;2023-02-26T03:56:45;6.47;;;0.68;;
74074;SDS011;62428;51.412;5.432;2023-02-26T03:59:12;3.85;;;0.50;;
74074;SDS011;62428;51.412;5.432;2023-02-26T04:01:40;9.23;;;1.00;;
74074;SDS011;62428;51.412;5.432;2023-02-26T04:04:31;9.10;;;0.82;;
74074;SDS011;62428;51.412;5.432;2023-02-26T04:07:16;2.72;;;0.55;;
74074;SDS011;62428;51.412;5.432;2023-02-26T04:09:43;5.70;;;0.70;;
74074;SDS011;62428;51.412;5.432;2023-02-26T04:12:10;9.25;;;0.90;;
74074;SDS011;62428;51.412;5.432;2023-02-26T04:14:36;3.37;;;0.90;;
74074;SDS011;62428;51.412;5.432;2023-02-26T04:17:01;6.93;;;1.00;;
74074;SDS011;62428;51.412;5.432;2023-02-26T04:19:27;4.33;;;0.70;;
74074;SDS011;62428;51.412;5.432;2023-02-26T04:21:52;4.50;;;1.05;;
74074;SDS011;62428;51.412;5.432;2023-02-26T04:24:18;3.38;;;0.60;;
74074;SDS011;62428;51.412;5.432;2023-02-26T04:26:43;9.83;;;0.80;;
74074;SDS011;62428;51.412;5.432;2023-02-26T04:29:09;8.00;;;0.73;;
74074;SDS011;62428;51.412;5.432;2023-02-26T04:31:34;6.47;;;0.80;;
74074;SDS011;62428;51.412;5.432;2023-02-26T04:34:00;2.67;;;0.87;;
74074;SDS011;62428;51.412;5.432;2023-02-26T04:36:25;6.43;;;0.80;;
74074;SDS011;62428;51.412;5.432;2023-02-26T04:38:50;4.97;;;0.73;;
74074;SDS011;62428;51.412;5.432;2023-02-26T04:41:16;5.83;;;0.50;;
74074;SDS011;62428;51.412;5.432;2023-02-26T04:43:41;4.00;;;0.50;;
74074;SDS011;62428;51.412;5.432;2023-02-26T04:46:06;5.00;;;0.70;;
74074;SDS011;62428;51.412;5.432;2023-02-26T04:48:32;3.75;;;0.35;;
74074;SDS011;62428;51.412;5.432;2023-02-26T04:50:57;5.87;;;0.50;;
74074;SDS011;62428;51.412;5.432;2023-02-26T04:53:22;7.83;;;0.87;;
74074;SDS011;62428;51.412;5.432;2023-02-26T04:55:48;6.90;;;0.83;;
74074;SDS011;62428;51.412;5.432;2023-02-26T04:58:14;3.77;;;0.70;;
74074;SDS011;62428;51.412;5.432;2023-02-26T05:00:39;8.63;;;0.80;;
74074;SDS011;62428;51.412;5.432;2023-02-26T05:03:05;5.68;;;0.90;;
74074;SDS011;62428;51.412;5.432;2023-02-26T05:05:31;4.70;;;0.60;;
74074;SDS011;62428;51.412;5.432;2023-02-26T05:07:56;4.95;;;0.70;;
74074;SDS011;62428;51.412;5.432;2023-02-26T05:10:22;2.40;;;0.40;;
74074;SDS011;62428;51.412;5.432;2023-02-26T05:12:48;3.38;;;0.50;;
74074;SDS011;62428;51.412;5.432;2023-02-26T05:15:14;9.17;;;0.83;;
74074;SDS011;62428;51.412;5.432;2023-02-26T05:17:39;6.10;;;0.80;;
74074;SDS011;62428;51.412;5.432;2023-02-26T05:20:05;3.00;;;0.30;;
74074;SDS011;62428;51.412;5.432;2023-02-26T05:22:34;6.53;;;0.60;;
74074;SDS011;62428;51.412;5.432;2023-02-26T05:25:00;3.28;;;0.60;;
74074;SDS011;62428;51.412;5.432;2023-02-26T05:27:25;5.30;;;0.60;;
74074;SDS011;62428;51.412;5.432;2023-02-26T05:29:51;3.97;;;0.70;;
74074;SDS011;62428;51.412;5.432;2023-02-26T05:32:16;1.70;;;0.50;;
74074;SDS011;62428;51.412;5.432;2023-02-26T05:34:41;2.57;;;0.60;;
74074;SDS011;62428;51.412;5.432;2023-02-26T05:37:06;2.27;;;0.30;;
74074;SDS011;62428;51.412;5.432;2023-02-26T05:39:32;3.53;;;0.67;;
74074;SDS011;62428;51.412;5.432;2023-02-26T05:41:57;3.90;;;0.40;;
74074;SDS011;62428;51.412;5.432;2023-02-26T05:44:23;1.75;;;0.30;;
74074;SDS011;62428;51.412;5.432;2023-02-26T05:46:48;2.90;;;0.40;;
74074;SDS011;62428;51.412;5.432;2023-02-26T05:49:14;2.43;;;0.50;;
74074;SDS011;62428;51.412;5.432;2023-02-26T05:51:39;3.33;;;0.40;;
74074;SDS011;62428;51.412;5.432;2023-02-26T05:54:06;5.13;;;0.50;;
74074;SDS011;62428;51.412;5.432;2023-02-26T05:56:32;2.38;;;0.73;;
74074;SDS011;62428;51.412;5.432;2023-02-26T05:58:57;9.97;;;0.73;;
74074;SDS011;62428;51.412;5.432;2023-02-26T06:01:23;3.13;;;0.50;;
74074;SDS011;62428;51.412;5.432;2023-02-26T06:03:48;3.07;;;0.40;;
74074;SDS011;62428;51.412;5.432;2023-02-26T06:06:13;4.93;;;0.57;;
74074;SDS011;62428;51.412;5.432;2023-02-26T06:08:43;2.13;;;0.38;;
74074;SDS011;62428;51.412;5.432;2023-02-26T06:11:11;1.95;;;0.45;;
74074;SDS011;62428;51.412;5.432;2023-02-26T06:13:37;1.47;;;0.20;;
74074;SDS011;62428;51.412;5.432;2023-02-26T06:16:03;3.05;;;0.70;;
74074;SDS011;62428;51.412;5.432;2023-02-26T06:18:28;8.07;;;0.30;;
74074;SDS011;62428;51.412;5.432;2023-02-26T06:20:56;4.55;;;0.30;;
74074;SDS011;62428;51.412;5.432;2023-02-26T06:23:21;3.33;;;0.50;;
74074;SDS011;62428;51.412;5.432;2023-02-26T06:25:48;2.80;;;0.20;;
74074;SDS011;62428;51.412;5.432;2023-02-26T06:28:14;2.83;;;0.30;;
74074;SDS011;62428;51.412;5.432;2023-02-26T06:30:40;2.73;;;0.20;;
74074;SDS011;62428;51.412;5.432;2023-02-26T06:33:05;2.70;;;0.55;;
74074;SDS011;62428;51.412;5.432;2023-02-26T06:35:30;1.83;;;0.40;;
74074;SDS011;62428;51.412;5.432;2023-02-26T06:37:56;2.00;;;0.30;;
74074;SDS011;62428;51.412;5.432;2023-02-26T06:40:21;3.93;;;0.40;;
74074;SDS011;62428;51.412;5.432;2023-02-26T06:42:47;5.43;;;0.40;;
74074;SDS011;62428;51.412;5.432;2023-02-26T06:45:12;1.20;;;0.30;;
74074;SDS011;62428;51.412;5.432;2023-02-26T06:47:38;3.20;;;0.30;;
74074;SDS011;62428;51.412;5.432;2023-02-26T06:50:03;5.00;;;0.30;;
74074;SDS011;62428;51.412;5.432;2023-02-26T06:52:29;2.13;;;0.20;;
74074;SDS011;62428;51.412;5.432;2023-02-26T06:54:54;3.17;;;0.20;;
74074;SDS011;62428;51.412;5.432;2023-02-26T06:57:19;15.83;;;0.70;;
74074;SDS011;62428;51.412;5.432;2023-02-26T06:59:45;4.53;;;0.30;;
74074;SDS011;62428;51.412;5.432;2023-02-26T07:02:17;10.03;;;0.30;;
74074;SDS011;62428;51.412;5.432;2023-02-26T07:04:44;6.03;;;0.40;;
74074;SDS011;62428;51.412;5.432;2023-02-26T07:07:10;1.73;;;0.27;;
74074;SDS011;62428;51.412;5.432;2023-02-26T07:09:35;5.25;;;0.20;;
74074;SDS011;62428;51.412;5.432;2023-02-26T07:12:01;4.78;;;0.20;;
74074;SDS011;62428;51.412;5.432;2023-02-26T07:14:26;3.87;;;0.23;;
74074;SDS011;62428;51.412;5.432;2023-02-26T07:16:51;0.50;;;0.10;;
74074;SDS011;62428;51.412;5.432;2023-02-26T07:19:17;8.23;;;0.60;;
74074;SDS011;62428;51.412;5.432;2023-02-26T07:21:42;5.30;;;0.40;;
74074;SDS011;62428;51.412;5.432;2023-02-26T07:24:07;5.87;;;0.30;;
74074;SDS011;62428;51.412;5.432;2023-02-26T07:26:33;1.20;;;0.13;;
74074;SDS011;62428;51.412;5.432;2023-02-26T07:28:58;1.33;;;0.20;;
74074;SDS011;62428;51.412;5.432;2023-02-26T07:31:24;2.90;;;0.30;;
74074;SDS011;62428;51.412;5.432;2023-02-26T07:33:49;4.90;;;0.20;;
74074;SDS011;62428;51.412;5.432;2023-02-26T07:36:14;2.70;;;0.30;;
74074;SDS011;62428;51.412;5.432;2023-02-26T07:38:40;2.47;;;0.40;;
74074;SDS011;62428;51.412;5.432;2023-02-26T07:41:05;5.23;;;0.30;;
74074;SDS011;62428;51.412;5.432;2023-02-26T07:43:30;2.30;;;0.20;;
74074;SDS011;62428;51.412;5.432;2023-02-26T07:45:56;3.17;;;0.30;;
74074;SDS011;62428;51.412;5.432;2023-02-26T07:48:21;1.97;;;0.20;;
74074;SDS011;62428;51.412;5.432;2023-02-26T07:50:46;3.40;;;0.30;;
74074;SDS011;62428;51.412;5.432;2023-02-26T07:53:16;5.50;;;0.38;;
74074;SDS011;62428;51.412;5.432;2023-02-26T07:55:41;3.60;;;0.60;;
74074;SDS011;62428;51.412;5.432;2023-02-26T07:58:06;2.90;;;0.40;;
74074;SDS011;62428;51.412;5.432;2023-02-26T08:00:32;3.37;;;0.30;;
74074;SDS011;62428;51.412;5.432;2023-02-26T08:02:57;1.03;;;0.20;;
74074;SDS011;62428;51.412;5.432;2023-02-26T08:05:22;5.70;;;0.20;;
74074;SDS011;62428;51.412;5.432;2023-02-26T08:07:48;3.37;;;0.30;;
74074;SDS011;62428;51.412;5.432;2023-02-26T08:10:13;1.58;;;0.30;;
74074;SDS011;62428;51.412;5.432;2023-02-26T08:12:38;3.43;;;0.33;;
74074;SDS011;62428;51.412;5.432;2023-02-26T08:15:04;3.70;;;0.30;;
74074;SDS011;62428;51.412;5.432;2023-02-26T08:17:30;2.25;;;0.55;;
74074;SDS011;62428;51.412;5.432;2023-02-26T08:19:56;5.17;;;0.40;;
74074;SDS011;62428;51.412;5.432;2023-02-26T08:22:21;2.23;;;0.30;;
74074;SDS011;62428;51.412;5.432;2023-02-26T08:24:47;7.60;;;0.52;;
74074;SDS011;62428;51.412;5.432;2023-02-26T08:27:13;1.60;;;0.30;;
74074;SDS011;62428;51.412;5.432;2023-02-26T08:29:38;5.88;;;0.47;;
74074;SDS011;62428;51.412;5.432;2023-02-26T08:32:04;4.23;;;0.30;;
74074;SDS011;62428;51.412;5.432;2023-02-26T08:34:29;1.67;;;0.17;;
74074;SDS011;62428;51.412;5.432;2023-02-26T08:36:54;4.70;;;0.40;;
74074;SDS011;62428;51.412;5.432;2023-02-26T08:39:20;2.33;;;0.40;;
74074;SDS011;62428;51.412;5.432;2023-02-26T08:41:45;5.73;;;0.20;;
74074;SDS011;62428;51.412;5.432;2023-02-26T08:44:10;1.40;;;0.20;;
74074;SDS011;62428;51.412;5.432;2023-02-26T08:46:36;5.95;;;0.30;;
74074;SDS011;62428;51.412;5.432;2023-02-26T08:49:01;2.67;;;0.20;;
74074;SDS011;62428;51.412;5.432;2023-02-26T08:51:27;3.80;;;0.50;;
74074;SDS011;62428;51.412;5.432;2023-02-26T08:53:52;2.88;;;0.30;;
74074;SDS011;62428;51.412;5.432;2023-02-26T08:56:18;2.70;;;0.30;;
74074;SDS011;62428;51.412;5.432;2023-02-26T08:58:43;2.83;;;0.40;;
74074;SDS011;62428;51.412;5.432;2023-02-26T09:01:09;2.63;;;0.30;;
74074;SDS011;62428;51.412;5.432;2023-02-26T09:03:34;3.00;;;0.30;;
74074;SDS011;62428;51.412;5.432;2023-02-26T09:06:00;3.53;;;0.40;;
74074;SDS011;62428;51.412;5.432;2023-02-26T09:08:25;7.60;;;0.30;;
74074;SDS011;62428;51.412;5.432;2023-02-26T09:10:50;3.13;;;0.40;;
74074;SDS011;62428;51.412;5.432;2023-02-26T09:13:16;1.73;;;0.40;;
74074;SDS011;62428;51.412;5.432;2023-02-26T09:15:41;1.80;;;0.20;;
74074;SDS011;62428;51.412;5.432;2023-02-26T09:18:06;5.27;;;0.30;;
74074;SDS011;62428;51.412;5.432;2023-02-26T09:20:39;2.42;;;0.40;;
74074;SDS011;62428;51.412;5.432;2023-02-26T09:23:04;4.40;;;0.40;;
74074;SDS011;62428;51.412;5.432;2023-02-26T09:25:30;6.35;;;0.52;;
74074;SDS011;62428;51.412;5.432;2023-02-26T09:27:55;2.20;;;0.37;;
74074;SDS011;62428;51.412;5.432;2023-02-26T09:30:20;2.60;;;0.40;;
74074;SDS011;62428;51.412;5.432;2023-02-26T09:32:46;2.03;;;0.20;;
74074;SDS011;62428;51.412;5.432;2023-02-26T09:35:11;3.00;;;0.30;;
74074;SDS011;62428;51.412;5.432;2023-02-26T09:37:36;1.03;;;0.13;;
74074;SDS011;62428;51.412;5.432;2023-02-26T09:40:02;4.90;;;0.30;;
74074;SDS011;62428;51.412;5.432;2023-02-26T09:45:29;4.72;;;0.28;;
74074;SDS011;62428;51.412;5.432;2023-02-26T09:47:57;3.88;;;0.10;;
74074;SDS011;62428;51.412;5.432;2023-02-26T09:50:27;4.28;;;0.30;;
74074;SDS011;62428;51.412;5.432;2023-02-26T09:53:04;2.30;;;0.37;;
74074;SDS011;62428;51.412;5.432;2023-02-26T09:55:41;3.55;;;0.17;;
74074;SDS011;62428;51.412;5.432;2023-02-26T09:58:30;3.45;;;0.20;;
74074;SDS011;62428;51.412;5.432;2023-02-26T10:04:49;3.33;;;0.30;;
74074;SDS011;62428;51.412;5.432;2023-02-26T10:07:41;2.63;;;0.10;;
74074;SDS011;62428;51.412;5.432;2023-02-26T10:12:51;2.60;;;0.60;;
74074;SDS011;62428;51.412;5.432;2023-02-26T10:15:21;5.32;;;0.32;;
74074;SDS011;62428;51.412;5.432;2023-02-26T10:23:22;3.38;;;0.25;;
74074;SDS011;62428;51.412;5.432;2023-02-26T10:26:06;1.33;;;0.13;;
74074;SDS011;62428;51.412;5.432;2023-02-26T10:42:27;3.28;;;0.30;;
74074;SDS011;62428;51.412;5.432;2023-02-26T10:45:15;1.77;;;0.17;;
74074;SDS011;62428;51.412;5.432;2023-02-26T10:51:04;2.28;;;0.25;;
74074;SDS011;62428;51.412;5.432;2023-02-26T10:53:48;1.90;;;0.20;;
74074;SDS011;62428;51.412;5.432;2023-02-26T10:56:23;2.70;;;0.40;;
74074;SDS011;62428;51.412;5.432;2023-02-26T10:58:53;4.35;;;0.20;;
74074;SDS011;62428;51.412;5.432;2023-02-26T11:01:20;2.17;;;0.10;;
74074;SDS011;62428;51.412;5.432;2023-02-26T11:03:48;1.42;;;0.20;;
74074;SDS011;62428;51.412;5.432;2023-02-26T11:06:25;1.42;;;0.20;;
74074;SDS011;62428;51.412;5.432;2023-02-26T11:08:57;2.42;;;0.20;;
74074;SDS011;62428;51.412;5.432;2023-02-26T11:14:18;3.17;;;0.20;;
74074;SDS011;62428;51.412;5.432;2023-02-26T11:16:54;2.63;;;0.40;;
74074;SDS011;62428;51.412;5.432;2023-02-26T11:19:29;1.85;;;0.10;;
74074;SDS011;62428;51.412;5.432;2023-02-26T11:21:57;2.28;;;0.30;;
74074;SDS011;62428;51.412;5.432;2023-02-26T11:24:30;1.50;;;0.20;;
74074;SDS011;62428;51.412;5.432;2023-02-26T11:27:00;2.53;;;0.50;;
74074;SDS011;62428;51.412;5.432;2023-02-26T11:29:34;4.25;;;0.35;;
74074;SDS011;62428;51.412;5.432;2023-02-26T11:32:04;1.40;;;0.13;;
74074;SDS011;62428;51.412;5.432;2023-02-26T11:34:31;5.18;;;0.30;;
74074;SDS011;62428;51.412;5.432;2023-02-26T11:36:57;4.40;;;0.20;;
74074;SDS011;62428;51.412;5.432;2023-02-26T11:39:25;3.07;;;0.50;;
74074;SDS011;62428;51.412;5.432;2023-02-26T11:41:57;3.53;;;0.20;;
74074;SDS011;62428;51.412;5.432;2023-02-26T11:44:33;1.38;;;0.20;;
74074;SDS011;62428;51.412;5.432;2023-02-26T11:47:12;1.67;;;0.10;;
74074;SDS011;62428;51.412;5.432;2023-02-26T11:49:44;1.38;;;0.20;;
74074;SDS011;62428;51.412;5.432;2023-02-26T11:54:59;1.25;;;0.20;;
74074;SDS011;62428;51.412;5.432;2023-02-26T11:57:27;0.93;;;0.20;;
74074;SDS011;62428;51.412;5.432;2023-02-26T11:59:53;3.55;;;0.28;;
74074;SDS011;62428;51.412;5.432;2023-02-26T12:02:22;2.03;;;0.20;;
74074;SDS011;62428;51.412;5.432;2023-02-26T12:04:53;3.20;;;0.30;;
74074;SDS011;62428;51.412;5.432;2023-02-26T12:07:21;0.52;;;0.20;;
74074;SDS011;62428;51.412;5.432;2023-02-26T12:09:47;1.73;;;0.20;;
74074;SDS011;62428;51.412;5.432;2023-02-26T12:20:36;0.70;;;0.10;;
74074;SDS011;62428;51.412;5.432;2023-02-26T12:23:25;2.80;;;0.22;;
74074;SDS011;62428;51.412;5.432;2023-02-26T12:45:55;3.92;;;0.20;;
74074;SDS011;62428;51.412;5.432;2023-02-26T12:54:25;1.27;;;0.30;;
74074;SDS011;62428;51.412;5.432;2023-02-26T13:03:15;1.10;;;0.20;;
74074;SDS011;62428;51.412;5.432;2023-02-26T13:06:13;1.77;;;0.30;;
74074;SDS011;62428;51.412;5.432;2023-02-26T13:17:41;1.92;;;0.20;;
74074;SDS011;62428;51.412;5.432;2023-02-26T13:20:12;0.70;;;0.10;;
74074;SDS011;62428;51.412;5.432;2023-02-26T13:22:56;0.60;;;0.10;;
74074;SDS011;62428;51.412;5.432;2023-02-26T13:30:58;1.80;;;0.50;;
74074;SDS011;62428;51.412;5.432;2023-02-26T13:33:28;1.50;;;0.20;;
74074;SDS011;62428;51.412;5.432;2023-02-26T13:35:55;2.97;;;0.20;;
74074;SDS011;62428;51.412;5.432;2023-02-26T13:38:32;1.25;;;0.20;;
74074;SDS011;62428;51.412;5.432;2023-02-26T13:43:40;1.48;;;0.20;;
74074;SDS011;62428;51.412;5.432;2023-02-26T13:46:32;2.15;;;0.20;;
74074;SDS011;62428;51.412;5.432;2023-02-26T13:51:46;2.10;;;0.30;;
74074;SDS011;62428;51.412;5.432;2023-02-26T13:59:24;3.97;;;0.30;;
74074;SDS011;62428;51.412;5.432;2023-02-26T14:01:53;3.83;;;0.30;;
74074;SDS011;62428;51.412;5.432;2023-02-26T14:04:22;1.83;;;0.30;;
74074;SDS011;62428;51.412;5.432;2023-02-26T14:14:42;1.30;;;0.20;;
74074;SDS011;62428;51.412;5.432;2023-02-26T14:19:41;2.20;;;0.20;;
74074;SDS011;62428;51.412;5.432;2023-02-26T14:24:37;3.17;;;0.22;;
74074;SDS011;62428;51.412;5.432;2023-02-26T14:29:37;0.80;;;0.30;;
74074;SDS011;62428;51.412;5.432;2023-02-26T14:32:12;1.65;;;0.40;;
74074;SDS011;62428;51.412;5.432;2023-02-26T14:34:47;1.33;;;0.35;;
74074;SDS011;62428;51.412;5.432;2023-02-26T14:37:17;1.50;;;0.57;;
74074;SDS011;62428;51.412;5.432;2023-02-26T14:39:46;1.17;;;0.30;;
74074;SDS011;62428;51.412;5.432;2023-02-26T14:42:21;2.83;;;0.40;;
74074;SDS011;62428;51.412;5.432;2023-02-26T14:44:57;0.55;;;0.30;;
74074;SDS011;62428;51.412;5.432;2023-02-26T14:47:32;0.93;;;0.20;;
74074;SDS011;62428;51.412;5.432;2023-02-26T14:49:58;1.90;;;0.30;;
74074;SDS011;62428;51.412;5.432;2023-02-26T14:58:25;2.20;;;0.30;;
74074;SDS011;62428;51.412;5.432;2023-02-26T15:07:17;2.28;;;0.30;;
74074;SDS011;62428;51.412;5.432;2023-02-26T15:09:56;2.15;;;0.50;;
74074;SDS011;62428;51.412;5.432;2023-02-26T15:24:01;1.35;;;0.30;;
74074;SDS011;62428;51.412;5.432;2023-02-26T15:26:28;1.27;;;0.20;;
74074;SDS011;62428;51.412;5.432;2023-02-26T15:28:57;2.65;;;0.35;;
74074;SDS011;62428;51.412;5.432;2023-02-26T15:31:27;1.30;;;0.40;;
74074;SDS011;62428;51.412;5.432;2023-02-26T15:33:57;1.08;;;0.25;;
74074;SDS011;62428;51.412;5.432;2023-02-26T15:36:23;2.37;;;0.30;;
74074;SDS011;62428;51.412;5.432;2023-02-26T15:38:57;2.40;;;0.43;;
74074;SDS011;62428;51.412;5.432;2023-02-26T15:41:24;1.63;;;0.30;;
74074;SDS011;62428;51.412;5.432;2023-02-26T15:43:53;2.47;;;0.30;;
74074;SDS011;62428;51.412;5.432;2023-02-26T15:46:22;1.35;;;0.32;;
74074;SDS011;62428;51.412;5.432;2023-02-26T15:48:54;1.70;;;0.28;;
74074;SDS011;62428;51.412;5.432;2023-02-26T15:51:24;2.95;;;0.30;;
74074;SDS011;62428;51.412;5.432;2023-02-26T15:53:50;4.28;;;0.50;;
74074;SDS011;62428;51.412;5.432;2023-02-26T15:56:23;2.57;;;0.40;;
74074;SDS011;62428;51.412;5.432;2023-02-26T15:58:52;5.30;;;0.60;;
74074;SDS011;62428;51.412;5.432;2023-02-26T16:01:31;3.00;;;0.20;;
74074;SDS011;62428;51.412;5.432;2023-02-26T16:04:00;1.10;;;0.30;;
74074;SDS011;62428;51.412;5.432;2023-02-26T16:08:56;3.57;;;0.40;;
74074;SDS011;62428;51.412;5.432;2023-02-26T16:11:23;2.05;;;0.20;;
74074;SDS011;62428;51.412;5.432;2023-02-26T16:13:55;0.85;;;0.30;;
74074;SDS011;62428;51.412;5.432;2023-02-26T16:16:23;2.07;;;0.40;;
74074;SDS011;62428;51.412;5.432;2023-02-26T16:18:52;1.17;;;0.30;;
74074;SDS011;62428;51.412;5.432;2023-02-26T16:21:25;1.83;;;0.40;;
74074;SDS011;62428;51.412;5.432;2023-02-26T16:24:00;2.15;;;0.40;;
74074;SDS011;62428;51.412;5.432;2023-02-26T16:26:30;2.65;;;0.30;;
74074;SDS011;62428;51.412;5.432;2023-02-26T16:29:29;2.15;;;0.60;;
74074;SDS011;62428;51.412;5.432;2023-02-26T16:31:51;1.40;;;0.40;;
74074;SDS011;62428;51.412;5.432;2023-02-26T16:36:48;1.52;;;0.30;;
74074;SDS011;62428;51.412;5.432;2023-02-26T16:39:25;1.37;;;0.43;;
74074;SDS011;62428;51.412;5.432;2023-02-26T16:42:07;4.72;;;0.40;;
74074;SDS011;62428;51.412;5.432;2023-02-26T16:44:36;2.92;;;0.30;;
74074;SDS011;62428;51.412;5.432;2023-02-26T16:47:09;3.10;;;0.30;;
74074;SDS011;62428;51.412;5.432;2023-02-26T16:49:35;3.27;;;0.40;;
74074;SDS011;62428;51.412;5.432;2023-02-26T16:52:04;2.15;;;0.30;;
74074;SDS011;62428;51.412;5.432;2023-02-26T16:54:34;2.60;;;0.40;;
74074;SDS011;62428;51.412;5.432;2023-02-26T16:57:03;2.17;;;0.50;;
74074;SDS011;62428;51.412;5.432;2023-02-26T16:59:33;2.73;;;0.30;;
74074;SDS011;62428;51.412;5.432;2023-02-26T17:04:29;1.48;;;0.40;;
74074;SDS011;62428;51.412;5.432;2023-02-26T17:06:59;1.75;;;0.30;;
74074;SDS011;62428;51.412;5.432;2023-02-26T17:12:21;1.80;;;0.40;;
74074;SDS011;62428;51.412;5.432;2023-02-26T17:14:52;3.63;;;0.60;;
74074;SDS011;62428;51.412;5.432;2023-02-26T17:17:20;2.20;;;0.40;;
74074;SDS011;62428;51.412;5.432;2023-02-26T17:19:45;1.20;;;0.30;;
74074;SDS011;62428;51.412;5.432;2023-02-26T17:22:12;2.23;;;0.50;;
74074;SDS011;62428;51.412;5.432;2023-02-26T17:24:40;3.30;;;0.52;;
74074;SDS011;62428;51.412;5.432;2023-02-26T17:27:13;1.77;;;0.30;;
74074;SDS011;62428;51.412;5.432;2023-02-26T17:29:45;2.42;;;0.65;;
74074;SDS011;62428;51.412;5.432;2023-02-26T17:32:16;3.45;;;0.50;;
74074;SDS011;62428;51.412;5.432;2023-02-26T17:34:43;1.67;;;0.50;;
74074;SDS011;62428;51.412;5.432;2023-02-26T17:37:12;1.83;;;0.40;;
74074;SDS011;62428;51.412;5.432;2023-02-26T17:39:38;2.95;;;0.50;;
74074;SDS011;62428;51.412;5.432;2023-02-26T17:42:10;1.67;;;0.30;;
74074;SDS011;62428;51.412;5.432;2023-02-26T17:44:41;4.65;;;0.80;;
74074;SDS011;62428;51.412;5.432;2023-02-26T17:47:25;2.42;;;0.88;;
74074;SDS011;62428;51.412;5.432;2023-02-26T17:49:51;3.72;;;0.57;;
74074;SDS011;62428;51.412;5.432;2023-02-26T17:52:18;14.00;;;4.72;;
74074;SDS011;62428;51.412;5.432;2023-02-26T17:54:43;5.87;;;1.70;;
74074;SDS011;62428;51.412;5.432;2023-02-26T17:57:11;6.60;;;0.90;;
74074;SDS011;62428;51.412;5.432;2023-02-26T17:59:41;2.47;;;0.70;;
74074;SDS011;62428;51.412;5.432;2023-02-26T18:02:13;3.73;;;0.63;;
74074;SDS011;62428;51.412;5.432;2023-02-26T18:04:41;2.38;;;0.70;;
74074;SDS011;62428;51.412;5.432;2023-02-26T18:07:07;4.37;;;0.93;;
74074;SDS011;62428;51.412;5.432;2023-02-26T18:09:33;1.33;;;0.32;;
74074;SDS011;62428;51.412;5.432;2023-02-26T18:11:59;3.37;;;0.83;;
74074;SDS011;62428;51.412;5.432;2023-02-26T18:14:24;1.53;;;0.50;;
74074;SDS011;62428;51.412;5.432;2023-02-26T18:16:49;5.53;;;0.90;;
74074;SDS011;62428;51.412;5.432;2023-02-26T18:19:15;4.07;;;0.80;;